Ana Sayfa
METAR-TAF:

METAR-TAF

Havaalanları :

Balıkesir, Türkiye

Balıkesir Merkez Havalimanı

Enlem: 39-37N, Boylam: 027-55E, yükseklik: 101 m

Güncel hava durumu gözlemi

Rapor saat 02:50 UTC de 40 dakika önce yapıldı.
Sakin rüzgar
Sıcaklık 1°C
Nem 93%
Basınç 1008 hPa
Görüş mesafesi 10 km veya daha fazla
1500 ft yükseklikte az bulutlu
3500 ft yükseklikte parçalı bulutlu
10000 ft yükseklikte parçalı çok bulutlu

METAR: LTBF 260250Z 00000KT 9999 FEW015 SCT035 BKN100 01/00 Q1008 NOSIG

Saat: 06:30 (03:30 UTC)

Tahmin

Rapor saat 01:40 UTC de 1 saat ve 50 dakika önce yapıldı.
Ayın 26'si saat 03 UTC'den ayın 26'si saat 12 UTC'ye kadar geçerli Tahmin
Rüzgar değişken yönden 2 kt
Görüş mesafesi 10 km veya daha fazla
1500 ft yükseklikte az bulutlu
3500 ft yükseklikte parçalı bulutlu
10000 ft yükseklikte parçalı çok bulutlu

TAF: LTBF 260140Z 2603/2612 VRB02KT 9999 FEW015 SCT035 BKN100

4.000'den fazla havaalanı için hava durumu gözlemleri ve tahminleri (METAR ve TAF raporları).

Kullanılabilir istasyonlar harita üzerinde sarı ve kırmızı noktalarla gösterilir.

İstasyonun adını görmek için fareyi noktanın üzerinde gezdirin.

Sonrasında hava gözlem ve tahminlerini görmek için tıklayın.

Haritayı değiştirmek için: yaklaştırmak için siyah artı işaretli yeşil düğmeye ve uzaklaştırmak için de eksi işaretli düğmeye hızla tıklayın; bitişik haritalar için yeşil okları kullanın.


METAR-TAF: